Search for airport 
image banner adimage banner adimage banner ad
image banner ad

KUNV - University Park

Located in State College, United States

ICAO - UNV, IATA - SCE

Data provided by Airmate  

General information

Coordinates: N40°51'0" W77°50'51"
Elevation is 1231 feet MSL.
Magnetic variation is -11° East
View others Airports in Pennsylvania

Operational data

Special qualification required
Current time UTC:
Current local time:
Weather
METAR: KUNV 182353Z 23005KT 10SM CLR 22/06 A3027
TAF: KUNV 182341Z 1900/1924 VRB04KT P6SM SKC FM190600 00000KT P6SM SKC FM191600 VRB04KT P6SM SCT250
View NOTAMs / SUP AIP / TFR affecting this airport [VIEW]
Communications frequencies: [VIEW]

Runways:

RWY identifierQFULength (ft)Width (ft)SurfaceLDA (ft)
0653°6701150ASPH6701
24233°6701150ASPH6701

Airport contact information

Address: State College United States

Other aviation service providers

Flight schools

Tech Aviation Flight School, Inc.

Tech Aviation Flight School, Inc.

Snapflightusa

Snapflightusa
brad@snapflight.com+1(814)574-7998

Satellite view of KUNV